Airport View

Enter ICAO identifier to see the current METAR for that AWOS.

KFNL for example

KBLV 312058Z AUTO VRB02KT 10SM OVC080 29/16 A3005 RMK AO2 SLP176 6//// T02940156 58010

31 Jul 2014 21:36

Other Area AWOS: KCPS - KALN - KSAR - KSTL

TAF KBLV 3116/0122 16006KT 9999 SCT050 SCT250 QNH3003INS BECMG 0104/0105 VRB06KT 4800 BR SKC QNH3006INS BECMG 0113/0114 VRB06KT 9999 NSW FEW030 QNH3008INS BECMG 0116/0117 10006KT 9999 BKN050 QNH3005INS TX29/0121Z TN16/0111Z